Seward, AK

9:43 PM AKDT on September 17, 2014 (GMT -0800)
Seward | Change Station
CLOSE
Current Station
Airport
Location: Seward,
Elevation: 20 ft
Nearby Weather Stations

Elev 20 ft 60.13 °N, 149.42 °W | Updated 50 minutes ago

Overcast
Overcast
48 °F
Feels Like 48 °F
N
5
Wind Variable Wind from SE

Today
High -- | Low -- °F
--% Chance of Precip.
Yesterday
High -- | Low -- °F
Precip. -- in
7:30 AM 8:12 PM
Waning Crescent, 30% visible
Pressure 29.18 in
Visibility 10.0 miles
Clouds Mostly Cloudy 5000 ft
Overcast 5500 ft
Dew Point 46 °F
Humidity 93%
Rainfall 0.97 in
Snow Depth 0 in , 1 in , 19 in
UV 0 out of 12
Pollen Not available.
Air Quality Not available.
Flu Activity Not available.
METAR PAWD 180453Z AUTO 14004KT 10SM BKN050 OVC055 09/08 A2918 RMK AO2 RAE43 SLP880 P0003 T00890078 TSNO

More Conditions Fewer Conditions

Pressure 29.18 in
Visibility 10.0 miles
Clouds Mostly Cloudy 5000 ft
Overcast 5500 ft
Dew Point 46 °F
Humidity 93%
Rainfall 0.97 in
Snow Depth 0 in , 1 in , 19 in
UV 0 out of 12
Pollen Not available.
Air Quality Not available.
Flu Activity Not available.
METAR PAWD 180453Z AUTO 14004KT 10SM BKN050 OVC055 09/08 A2918 RMK AO2 RAE43 SLP880 P0003 T00890078 TSNO

More Conditions Fewer Conditions

10-Day Weather Forecast

Almanac

Astronomy

Sep. 17, 2014 Rise Set
Actual Time 7:30 AM AKDT 8:12 PM AKDT
Civil Twilight 6:48 AM AKDT 8:54 PM AKDT
Nautical Twilight 5:56 AM AKDT 9:45 PM AKDT
Astronomical Twilight 4:58 AM AKDT 10:42 PM AKDT
Moon 12:32 AM AKDT (9/17) 5:31 PM AKDT (9/17)
Length of Visible Light 14h 05m
Length of Day
12h 41m
Tomorrow will be 5m 26s shorter.
Waning Crescent, 30% of the Moon is Illuminated
Sep 18
Waning Crescent
Sep 24
New
Oct 1
First Quarter
Oct 8
Full
Oct 15
Last Quarter

Yesterday's Extremes

State Highs State Lows

Community

WunderPhotos

Upload Photos

1,754,292 photos uploaded!

Nearby

Snow Depth

Station Depth Elevation
Upper Tsaina River 0 in 1750 ft
Upper Chena 1 in 2850 ft
Cooper Lake 19 in 1200 ft
Long Lake 0 in 820 ft
Summit Creek 0 in 1400 ft

Earthquake Activity

City Distance Mag. Time & Date
No recent earthquake activity has been reported nearby.
Minimum magnitude displayed is 2.5.

Coastal Water Temperatures

Place Temperature
No Stations Reporting

Nearby Weather Stations